Observations for TIREE ISLAND, United Kingdom (EGPU)

EGPU 250320Z AUTO 34013KT 9999 -RA FEW020/// BKN031/// 04/02 Q1009  
EGPU 250250Z AUTO 35013KT 320V020 9999 -RA FEW019/// BKN023/// BKN043/// 04/02 Q1009
EGPU 250220Z AUTO 35015KT 330V040 9999 RA FEW024/// BKN030/// 04/01 Q1009   
EGPU 250150Z AUTO 32014KT 9999 FEW024/// 04/01 Q1009 RERA   
EGPU 250120Z AUTO 32014KT 9999 NCD 03/01 Q1008 RERA 
EGPU 250050Z AUTO 31021KT 4700 RA FEW021/// 03/02 Q1008 
EGPU 250020Z AUTO 30008KT 270V330 9999 -RA NCD 03/02 Q1008  
EGPU 242350Z AUTO 34008KT 9999 -RA SCT015/// 02/01 Q1008
EGPU 242320Z AUTO 31023KT 9999 RA FEW011/// BKN018/// 03/01 Q1009   
EGPU 242250Z AUTO 33013KT 9999 -RA FEW017/// BKN045/// 04/02 Q1008  
EGPU 242220Z AUTO 35018KT 320V030 9999 FEW015/// 04/02 Q1007 RERA   
EGPU 242150Z AUTO 33021KT 9999 -RA BKN038/// 04/02 Q1007
EGPU 242120Z AUTO 30009KT 260V350 9999 SCT034/// 05/02 Q1007 RERA   
EGPU 242050Z 30013KT 9999 VCSH FEW036 04/M00 Q1007  
EGPU 242020Z 29007KT 9999 VCSH BKN031 04/01 Q1007   
EGPU 241950Z 29018KT 9999 VCSH SCT037 04/01 Q1007   
EGPU 241920Z AUTO 28008KT 9999 FEW032/// 04/00 Q1006 RERA   
EGPU 241850Z AUTO 29012KT 9999 FEW035/// 04/M00 Q1006   
EGPU 241820Z 29015KT 9999 VCSH SCT029CB SCT035 04/M00 Q1006 
EGPU 241750Z AUTO 27013KT 9999 SCT033/// 04/M01 Q1006 RERA  
EGPU 241720Z AUTO 30012KT 270V330 9999 FEW043/// 04/M00 Q1006 RERA  
EGPU 241650Z AUTO 31010KT 270V350 9999 FEW034/// SCT045/// 04/01 Q1006 RERA 
EGPU 241620Z 34017KT 9999 -SHRAGS SCT029CB SCT042 04/01 Q1006   
EGPU 241550Z AUTO 27010KT 240V300 9999 FEW042/// 03/M01 Q1005 RERA  
EGPU 241520Z AUTO 28012KT 250V310 9999 FEW039/// 04/M00 Q1005 RERA  
EGPU 241450Z 32010KT 9999 VCSH SCT029CB SCT034 04/00 Q1005  
EGPU 241420Z 33016KT 9999 VCSH SCT028CB SCT036 04/01 Q1005  
EGPU 241350Z AUTO 30015KT 9999 FEW036/// 05/M01 Q1005   
EGPU 241320Z AUTO 29011KT 9999 FEW042/// 04/M02 Q1005   
EGPU 241250Z AUTO 27012KT 9999 FEW044/// 04/M01 Q1005   
EGPU 241220Z 28012KT 250V310 9999 VCSH SCT030CB SCT042 04/M01 Q1005 
EGPU 241150Z 28016KT 9999 VCSH FEW028 SCT030CB 04/M02 Q1005 236907//
EGPU 241120Z 29011KT 9999 VCSH SCT029CB SCT039 03/M00 Q1005 
EGPU 241050Z 27008KT 9999 VCSH SCT027 FEW031CB 02/01 Q1005 886907// 
EGPU 241020Z 27011KT 230V300 9999 VCSH FEW029CB SCT034 03/00 Q1004 886907// 
EGPU 240950Z AUTO 28012KT 250V310 9999 NCD 03/00 Q1004 RERA 
EGPU 240920Z AUTO 29016KT 250V320 9999 FEW015/// 02/M00 Q1004 RERA  
EGPU 240850Z 27010G25KT 2000 SHGR FEW020 BKN030CB 03/02 Q1004   
EGPU 240820Z 27006KT 9999 VCSH FEW010 SCT032CB 01/M00 Q1004 
EGPU 240750Z AUTO 29027KT 6000 -RA FEW024/// 02/00 Q1004
EGPU 240720Z AUTO 31012KT 280V340 9999 FEW015/// SCT021/// 04/03 Q1003 RERA 
EGPU 240650Z AUTO 27012KT 9999 FEW024/// 03/01 Q1003 RERA   
EGPU 240620Z AUTO 27016KT 240V300 9999 FEW023/// 04/01 Q1003 RERA   
EGPU 240550Z AUTO 00000KT 9999 FEW042/// 01/01 Q1004 RERA   
EGPU 240520Z AUTO 33007KT 9999 FEW012/// BKN035/// 02/01 Q1004 RERA 
EGPU 240450Z AUTO 26006KT 240V320 9999 SCT036/// SCT046/// 02/01 Q1004 RERA 
EGPU 240420Z AUTO 33005KT 290V010 8000 -RA BKN023/// 02/01 Q1003
EGPU 240350Z AUTO 34011KT 310V010 9999 UP SCT023/// 03/01 Q1003 
EGPU 240320Z AUTO 27010KT 9999 NCD 02/01 Q1003  
EGPU 240250Z AUTO 27004KT 240V300 9999 FEW026/// 02/00 Q1003